createdAt,value
2018-07-16T00:00:33.370Z,19.81
2018-07-16T00:01:33.322Z,19.84
2018-07-16T00:02:33.343Z,19.81
2018-07-16T00:03:33.356Z,19.91
2018-07-16T00:04:33.378Z,19.78
2018-07-16T00:05:33.394Z,19.78
2018-07-16T00:06:33.424Z,19.81
2018-07-16T00:07:33.432Z,19.84
2018-07-16T00:08:33.440Z,19.78
2018-07-16T00:09:33.461Z,19.78
2018-07-16T00:10:33.472Z,19.92
2018-07-16T00:11:33.492Z,19.98
2018-07-16T00:12:33.590Z,19.98
2018-07-16T00:13:33.529Z,19.88
2018-07-16T00:14:33.591Z,19.94
2018-07-16T00:15:33.557Z,19.86
2018-07-16T00:16:33.578Z,19.88
2018-07-16T00:17:33.590Z,19.80
2018-07-16T00:18:33.639Z,19.80
2018-07-16T00:19:33.629Z,19.77
2018-07-16T00:20:33.641Z,19.83
2018-07-16T00:21:33.710Z,19.78
2018-07-16T00:22:33.674Z,19.84
2018-07-16T00:23:33.696Z,19.86
2018-07-16T00:24:33.707Z,19.81
2018-07-16T00:25:33.723Z,19.80
2018-07-16T00:26:33.741Z,19.86
2018-07-16T00:27:33.759Z,19.80
2018-07-16T00:28:33.775Z,19.84
2018-07-16T00:29:33.796Z,19.77
2018-07-16T00:30:33.808Z,19.78
2018-07-16T00:31:33.826Z,19.81
2018-07-16T00:32:33.848Z,19.83
2018-07-16T00:33:33.862Z,19.83
2018-07-16T00:34:33.881Z,19.80
2018-07-16T00:35:33.901Z,19.80
2018-07-16T00:36:33.914Z,19.73
2018-07-16T00:37:33.927Z,19.73
2018-07-16T00:38:33.952Z,19.76
2018-07-16T00:39:33.970Z,19.76
2018-07-16T00:40:33.976Z,19.63
2018-07-16T00:41:33.996Z,19.51
2018-07-16T00:42:34.009Z,19.56
2018-07-16T00:43:34.028Z,19.62
2018-07-16T00:44:34.046Z,19.58
2018-07-16T00:45:34.063Z,19.55
2018-07-16T00:46:34.081Z,19.58
2018-07-16T00:47:34.093Z,19.54
2018-07-16T00:48:34.116Z,19.54
2018-07-16T00:49:34.131Z,19.58
2018-07-16T00:50:34.148Z,19.56
2018-07-16T00:51:34.168Z,19.51
2018-07-16T00:52:34.177Z,19.47
2018-07-16T00:53:34.201Z,19.41
2018-07-16T00:54:34.271Z,19.40
2018-07-16T00:55:34.228Z,19.40
2018-07-16T00:56:34.327Z,19.43
2018-07-16T00:57:34.306Z,19.40
2018-07-16T00:58:34.281Z,19.28
2018-07-16T00:59:34.298Z,19.28
2018-07-16T01:00:34.379Z,19.32
2018-07-16T01:01:34.333Z,19.28
2018-07-16T01:02:34.349Z,19.25
2018-07-16T01:03:34.437Z,19.22
2018-07-16T01:04:34.382Z,19.26
2018-07-16T01:05:34.402Z,19.28
2018-07-16T01:06:34.429Z,19.23
2018-07-16T01:07:34.438Z,19.22
2018-07-16T01:08:34.450Z,19.23
2018-07-16T01:09:34.464Z,19.14
2018-07-16T01:10:34.477Z,19.16
2018-07-16T01:11:34.500Z,19.13
2018-07-16T01:12:34.517Z,19.08
2018-07-16T01:13:34.535Z,18.99
2018-07-16T01:14:34.545Z,19.11
2018-07-16T01:15:34.565Z,19.06
2018-07-16T01:16:34.590Z,19.06
2018-07-16T01:17:34.604Z,19.04
2018-07-16T01:18:34.613Z,18.94
2018-07-16T01:19:34.634Z,18.99
2018-07-16T01:20:34.650Z,18.98
2018-07-16T01:21:34.668Z,18.92
2018-07-16T01:22:34.683Z,18.90
2018-07-16T01:23:34.696Z,18.95
2018-07-16T01:24:34.716Z,18.90
2018-07-16T01:25:34.727Z,18.90
2018-07-16T01:26:34.746Z,18.91
2018-07-16T01:27:34.762Z,18.84
2018-07-16T01:28:34.777Z,18.90
2018-07-16T01:29:34.795Z,18.95
2018-07-16T01:30:34.815Z,18.91
2018-07-16T01:31:34.830Z,18.88
2018-07-16T01:32:34.844Z,18.94
2018-07-16T01:33:34.865Z,18.85
2018-07-16T01:34:34.877Z,18.85
2018-07-16T01:35:34.894Z,18.94
2018-07-16T01:36:34.915Z,18.88
2018-07-16T01:37:34.930Z,18.92
2018-07-16T01:38:34.946Z,18.95
2018-07-16T01:39:34.967Z,18.92
2018-07-16T01:40:34.980Z,18.91
2018-07-16T01:41:34.996Z,18.91
2018-07-16T01:42:35.021Z,18.88
2018-07-16T01:43:35.031Z,18.91
2018-07-16T01:44:35.047Z,18.82
2018-07-16T01:45:35.063Z,18.76
2018-07-16T01:46:35.081Z,18.82
2018-07-16T01:47:35.095Z,18.84
2018-07-16T01:48:35.161Z,18.82
2018-07-16T01:49:35.129Z,18.73
2018-07-16T01:50:35.142Z,18.75
2018-07-16T01:51:35.164Z,18.80
2018-07-16T01:52:35.178Z,18.72
2018-07-16T01:53:35.194Z,18.72
2018-07-16T01:54:35.264Z,18.72
2018-07-16T01:55:35.222Z,18.60
2018-07-16T01:56:35.238Z,18.76
2018-07-16T01:57:35.260Z,18.73
2018-07-16T01:58:35.270Z,18.75
2018-07-16T01:59:35.291Z,18.70
2018-07-16T02:00:35.372Z,18.66
2018-07-16T02:01:35.325Z,18.70
2018-07-16T02:02:35.336Z,18.63
2018-07-16T02:03:35.356Z,18.73
2018-07-16T02:04:35.371Z,18.67
2018-07-16T02:05:35.384Z,18.65
2018-07-16T02:06:35.478Z,18.69
2018-07-16T02:07:35.449Z,18.72
2018-07-16T02:08:35.438Z,18.70
2018-07-16T02:09:35.455Z,18.70
2018-07-16T02:10:35.471Z,18.73
2018-07-16T02:11:35.486Z,18.73
2018-07-16T02:12:35.571Z,18.69
2018-07-16T02:13:35.516Z,18.81
2018-07-16T02:14:35.535Z,18.75
2018-07-16T02:15:35.553Z,18.73
2018-07-16T02:16:35.563Z,18.72
2018-07-16T02:17:35.584Z,18.67
2018-07-16T02:18:35.674Z,18.81
2018-07-16T02:19:35.615Z,18.80
2018-07-16T02:20:35.632Z,18.72
2018-07-16T02:21:35.644Z,18.72
2018-07-16T02:22:35.665Z,18.81
2018-07-16T02:23:35.679Z,18.73
2018-07-16T02:24:35.764Z,18.69
2018-07-16T02:25:35.709Z,18.70
2018-07-16T02:26:35.771Z,18.76
2018-07-16T02:27:35.745Z,18.76
2018-07-16T02:28:35.760Z,18.72
2018-07-16T02:29:35.773Z,18.73
2018-07-16T02:30:35.794Z,18.72
2018-07-16T02:31:35.805Z,18.76
2018-07-16T02:32:35.826Z,18.73
2018-07-16T02:33:35.844Z,18.70
2018-07-16T02:34:35.856Z,18.75
2018-07-16T02:35:35.870Z,18.72
2018-07-16T02:36:35.892Z,18.75
2018-07-16T02:37:35.900Z,18.82
2018-07-16T02:38:35.926Z,18.78
2018-07-16T02:39:35.932Z,18.72
2018-07-16T02:40:35.966Z,18.63
2018-07-16T02:41:35.970Z,18.75
2018-07-16T02:42:35.982Z,18.75
2018-07-16T02:43:36.003Z,18.76
2018-07-16T02:44:36.029Z,18.66
2018-07-16T02:45:36.030Z,18.69
2018-07-16T02:46:36.052Z,18.70
2018-07-16T02:47:36.068Z,18.69
2018-07-16T02:48:36.084Z,18.67
2018-07-16T02:49:36.095Z,18.70
2018-07-16T02:50:36.119Z,18.75
2018-07-16T02:51:36.135Z,18.70
2018-07-16T02:52:36.148Z,18.75
2018-07-16T02:53:36.161Z,18.60
2018-07-16T02:54:36.180Z,18.67
2018-07-16T02:55:36.193Z,18.65
2018-07-16T02:56:36.217Z,18.73
2018-07-16T02:57:36.227Z,18.69
2018-07-16T02:58:36.240Z,18.63
2018-07-16T02:59:36.263Z,18.70
2018-07-16T03:00:36.279Z,18.72
2018-07-16T03:01:36.297Z,18.58
2018-07-16T03:02:36.310Z,18.69
2018-07-16T03:04:36.391Z,18.69
2018-07-16T03:05:36.364Z,18.69
2018-07-16T03:06:36.372Z,18.69
2018-07-16T03:07:36.402Z,18.70
2018-07-16T03:08:36.409Z,18.60
2018-07-16T03:09:36.424Z,18.67
2018-07-16T03:10:36.442Z,18.62
2018-07-16T03:11:36.458Z,18.69
2018-07-16T03:12:36.482Z,18.69
2018-07-16T03:13:36.486Z,18.67
2018-07-16T03:14:36.506Z,18.62
2018-07-16T03:15:36.523Z,18.54
2018-07-16T03:16:36.535Z,18.65
2018-07-16T03:17:36.556Z,18.54
2018-07-16T03:18:36.567Z,18.55
2018-07-16T03:19:36.587Z,18.55
2018-07-16T03:20:36.598Z,18.58
2018-07-16T03:21:36.621Z,18.66
2018-07-16T03:22:36.633Z,18.72
2018-07-16T03:23:36.647Z,18.62
2018-07-16T03:24:36.666Z,18.75
2018-07-16T03:25:36.681Z,18.70
2018-07-16T03:26:36.709Z,18.67
2018-07-16T03:27:36.714Z,18.75
2018-07-16T03:28:36.736Z,18.67
2018-07-16T03:29:36.751Z,18.67
2018-07-16T03:30:36.776Z,18.55
2018-07-16T03:31:36.781Z,18.57
2018-07-16T03:32:36.801Z,18.60
2018-07-16T03:33:36.815Z,18.54
2018-07-16T03:34:36.828Z,18.52
2018-07-16T03:35:36.845Z,18.58
2018-07-16T03:36:36.866Z,18.60
2018-07-16T03:37:36.879Z,18.55
2018-07-16T03:38:36.900Z,18.47
2018-07-16T03:39:36.912Z,18.36
2018-07-16T03:40:36.978Z,18.27
2018-07-16T03:41:36.953Z,18.30
2018-07-16T03:42:36.969Z,18.29
2018-07-16T03:43:37.019Z,18.37
2018-07-16T03:44:36.998Z,18.33
2018-07-16T03:45:37.011Z,18.35
2018-07-16T03:46:37.032Z,18.32
2018-07-16T03:47:37.046Z,18.27
2018-07-16T03:48:37.064Z,18.41
2018-07-16T03:49:37.172Z,18.36
2018-07-16T03:50:37.099Z,18.30
2018-07-16T03:51:37.112Z,18.32
2018-07-16T03:52:37.135Z,18.39
2018-07-16T03:53:37.147Z,18.37
2018-07-16T03:54:37.164Z,18.33
2018-07-16T03:55:37.208Z,18.42
2018-07-16T03:56:37.202Z,18.50
2018-07-16T03:57:37.210Z,18.52
2018-07-16T03:58:37.230Z,18.51
2018-07-16T03:59:37.243Z,18.51
2018-07-16T04:00:37.260Z,18.54
2018-07-16T04:01:37.376Z,18.55
2018-07-16T04:02:37.292Z,18.50
2018-07-16T04:03:37.307Z,18.35
2018-07-16T04:04:37.326Z,18.30
2018-07-16T04:05:37.345Z,18.29
2018-07-16T04:06:37.366Z,18.30
2018-07-16T04:07:37.434Z,18.30
2018-07-16T04:08:37.395Z,18.41
2018-07-16T04:09:37.410Z,18.42
2018-07-16T04:10:40.581Z,18.44
2018-07-16T04:11:37.442Z,18.45
2018-07-16T04:12:37.466Z,18.39
2018-07-16T04:13:37.541Z,18.36
2018-07-16T04:14:37.497Z,18.36
2018-07-16T04:15:37.508Z,18.42
2018-07-16T04:16:37.527Z,18.29
2018-07-16T04:17:37.542Z,18.29
2018-07-16T04:18:37.559Z,18.23
2018-07-16T04:19:37.610Z,18.32
2018-07-16T04:20:37.597Z,18.30
2018-07-16T04:21:37.610Z,18.36
2018-07-16T04:22:37.626Z,18.37
2018-07-16T04:23:37.733Z,18.42
2018-07-16T04:24:37.663Z,18.36
2018-07-16T04:25:37.683Z,18.30
2018-07-16T04:26:37.696Z,18.18
2018-07-16T04:27:37.717Z,18.23
2018-07-16T04:28:37.731Z,18.30
2018-07-16T04:29:37.780Z,18.42
2018-07-16T04:30:37.762Z,18.41
2018-07-16T04:31:37.779Z,18.47
2018-07-16T04:32:37.791Z,18.55
2018-07-16T04:33:37.813Z,18.45
2018-07-16T04:34:37.824Z,18.51
2018-07-16T04:35:37.847Z,18.45
2018-07-16T04:36:37.859Z,18.48
2018-07-16T04:37:37.881Z,18.45
2018-07-16T04:38:37.895Z,18.50
2018-07-16T04:39:37.916Z,18.63
2018-07-16T04:40:37.931Z,18.62
2018-07-16T04:41:37.952Z,18.52
2018-07-16T04:42:37.957Z,18.54
2018-07-16T04:43:37.974Z,18.39
2018-07-16T04:44:37.991Z,18.41
2018-07-16T04:45:38.008Z,18.41
2018-07-16T04:46:38.026Z,18.45
2018-07-16T04:47:38.045Z,18.54
2018-07-16T04:48:38.063Z,18.45
2018-07-16T04:49:38.080Z,18.54
2018-07-16T04:50:38.092Z,18.50
2018-07-16T04:51:38.110Z,18.48
2018-07-16T04:52:38.176Z,18.47
2018-07-16T04:53:38.142Z,18.37
2018-07-16T04:54:38.157Z,18.35
2018-07-16T04:55:38.179Z,18.39
2018-07-16T04:56:38.196Z,18.41
2018-07-16T04:57:38.208Z,18.39
2018-07-16T04:58:38.232Z,18.39
2018-07-16T04:59:38.246Z,18.44
2018-07-16T05:00:38.258Z,18.45
2018-07-16T05:01:38.280Z,18.42
2018-07-16T05:02:38.292Z,18.51
2018-07-16T05:03:38.313Z,18.50
2018-07-16T05:04:38.327Z,18.57
2018-07-16T05:05:38.342Z,18.57
2018-07-16T05:06:38.363Z,18.60
2018-07-16T05:07:38.375Z,18.48
2018-07-16T05:08:38.395Z,18.54
2018-07-16T05:09:38.409Z,18.54
2018-07-16T05:10:38.430Z,18.70
2018-07-16T05:11:38.446Z,18.66
2018-07-16T05:12:38.464Z,18.69
2018-07-16T05:13:38.526Z,18.70
2018-07-16T05:14:38.496Z,18.69
2018-07-16T05:15:38.507Z,18.67
2018-07-16T05:16:38.528Z,18.60
2018-07-16T05:17:38.550Z,18.57
2018-07-16T05:18:38.559Z,18.75
2018-07-16T05:19:38.603Z,18.67
2018-07-16T05:20:38.597Z,18.76
2018-07-16T05:21:38.611Z,18.73
2018-07-16T05:22:38.628Z,18.80
2018-07-16T05:23:38.644Z,18.78
2018-07-16T05:24:38.663Z,18.90
2018-07-16T05:25:38.751Z,18.94
2018-07-16T05:26:38.696Z,18.94
2018-07-16T05:27:38.715Z,18.99
2018-07-16T05:28:38.734Z,19.07
2018-07-16T05:29:38.740Z,19.11
2018-07-16T05:30:38.763Z,19.18
2018-07-16T05:31:38.816Z,19.11
2018-07-16T05:32:38.976Z,19.14
2018-07-16T05:33:38.821Z,19.11
2018-07-16T05:34:38.892Z,19.18
2018-07-16T05:35:38.845Z,19.26
2018-07-16T05:36:38.856Z,19.21
2018-07-16T05:37:38.946Z,19.23
2018-07-16T05:38:38.895Z,19.21
2018-07-16T05:39:38.907Z,19.32
2018-07-16T05:40:38.925Z,19.23
2018-07-16T05:41:38.940Z,19.23
2018-07-16T05:42:38.958Z,19.32
2018-07-16T05:43:38.975Z,19.29
2018-07-16T05:44:38.989Z,19.29
2018-07-16T05:45:39.016Z,19.29
2018-07-16T05:46:39.023Z,19.37
2018-07-16T05:47:39.045Z,19.39
2018-07-16T05:48:39.059Z,19.40
2018-07-16T05:49:39.094Z,19.37
2018-07-16T05:50:39.095Z,19.37
2018-07-16T05:51:39.107Z,19.48
2018-07-16T05:52:39.127Z,19.48
2018-07-16T05:53:39.138Z,19.55
2018-07-16T05:54:39.161Z,19.56
2018-07-16T05:55:39.180Z,19.61
2018-07-16T05:56:39.207Z,19.65
2018-07-16T05:57:39.216Z,19.61
2018-07-16T05:58:39.227Z,19.68
2018-07-16T05:59:39.242Z,19.66
2018-07-16T06:00:39.260Z,19.77
2018-07-16T06:01:39.278Z,19.74
2018-07-16T06:02:39.292Z,19.73
2018-07-16T06:03:39.305Z,19.77
2018-07-16T06:04:39.328Z,19.69
2018-07-16T06:05:39.340Z,19.73
2018-07-16T06:06:39.357Z,19.73
2018-07-16T06:07:39.373Z,19.63
2018-07-16T06:08:39.408Z,19.63
2018-07-16T06:09:39.406Z,19.58
2018-07-16T06:10:39.424Z,19.51
2018-07-16T06:11:39.444Z,19.43
2018-07-16T06:12:39.461Z,19.48
2018-07-16T06:13:39.560Z,19.54
2018-07-16T06:14:39.589Z,19.58
2018-07-16T06:15:39.518Z,19.50
2018-07-16T06:16:39.542Z,19.54
2018-07-16T06:17:39.542Z,19.55
2018-07-16T06:18:39.561Z,19.58
2018-07-16T06:19:39.604Z,19.59
2018-07-16T06:20:39.594Z,19.61
2018-07-16T06:21:39.607Z,19.66
2018-07-16T06:22:39.624Z,19.59
2018-07-16T06:23:39.644Z,19.61
2018-07-16T06:24:39.658Z,19.51
2018-07-16T06:25:39.763Z,19.54
2018-07-16T06:26:39.689Z,19.55
2018-07-16T06:27:39.707Z,19.55
2018-07-16T06:28:39.726Z,19.58
2018-07-16T06:29:39.741Z,19.51
2018-07-16T06:30:39.760Z,19.61
2018-07-16T06:31:39.868Z,19.61
2018-07-16T06:32:39.795Z,19.73
2018-07-16T06:33:39.809Z,19.81
2018-07-16T06:34:39.827Z,19.77
2018-07-16T06:35:39.857Z,19.80
2018-07-16T06:36:39.859Z,19.94
2018-07-16T06:37:39.877Z,19.81
2018-07-16T06:38:39.894Z,19.84
2018-07-16T06:39:40.048Z,19.84
2018-07-16T06:40:40.168Z,19.77
2018-07-16T06:41:39.942Z,19.83
2018-07-16T06:42:39.958Z,19.83
2018-07-16T06:43:40.046Z,19.94
2018-07-16T06:44:39.995Z,20.11
2018-07-16T06:45:40.009Z,20.05
2018-07-16T06:46:40.045Z,20.18
2018-07-16T06:47:40.089Z,20.16
2018-07-16T06:48:40.065Z,20.39
2018-07-16T06:49:40.091Z,20.23
2018-07-16T06:50:40.098Z,20.38
2018-07-16T06:51:40.111Z,20.48
2018-07-16T06:52:40.180Z,20.61
2018-07-16T06:53:40.143Z,20.62
2018-07-16T06:54:40.164Z,20.67
2018-07-16T06:55:40.181Z,20.76
2018-07-16T06:56:40.198Z,20.70
2018-07-16T06:57:40.222Z,20.84
2018-07-16T06:58:40.228Z,20.97
2018-07-16T06:59:40.247Z,21.14
2018-07-16T07:00:40.265Z,21.14
2018-07-16T07:01:40.281Z,21.04
2018-07-16T07:02:40.298Z,21.13
2018-07-16T07:03:40.316Z,21.17
2018-07-16T07:04:40.340Z,21.14
2018-07-16T07:05:40.350Z,21.13
2018-07-16T07:06:40.370Z,21.29
2018-07-16T07:07:40.448Z,21.35
2018-07-16T07:08:40.401Z,21.43
2018-07-16T07:09:40.421Z,21.56
2018-07-16T07:10:40.447Z,21.67
2018-07-16T07:11:40.458Z,21.75
2018-07-16T07:12:40.478Z,21.61
2018-07-16T07:13:40.546Z,21.53
2018-07-16T07:14:40.512Z,21.61
2018-07-16T07:15:40.529Z,21.69
2018-07-16T07:16:40.608Z,21.49
2018-07-16T07:17:40.564Z,21.58
2018-07-16T07:18:40.578Z,21.74
2018-07-16T07:19:40.613Z,21.92
2018-07-16T07:20:40.615Z,22.14
2018-07-16T07:21:40.635Z,22.15
2018-07-16T07:22:40.658Z,22.15
2018-07-16T07:23:40.671Z,22.35
2018-07-16T07:24:40.689Z,22.37
2018-07-16T07:25:40.765Z,22.37
2018-07-16T07:26:40.722Z,22.35
2018-07-16T07:27:40.740Z,22.28
2018-07-16T07:28:40.758Z,22.33
2018-07-16T07:29:40.777Z,22.36
2018-07-16T07:30:40.799Z,22.21
2018-07-16T07:31:40.811Z,22.07
2018-07-16T07:32:40.831Z,22.25
2018-07-16T07:33:40.848Z,22.45
2018-07-16T07:34:40.864Z,22.52
2018-07-16T07:35:40.903Z,22.52
2018-07-16T07:36:40.902Z,22.68
2018-07-16T07:37:40.927Z,22.73
2018-07-16T07:38:40.943Z,22.76
2018-07-16T07:39:40.958Z,22.65
2018-07-16T07:40:40.976Z,22.77
2018-07-16T07:41:40.998Z,22.68
2018-07-16T07:42:41.012Z,23.00
2018-07-16T07:43:41.035Z,23.04
2018-07-16T07:44:41.049Z,23.31
2018-07-16T07:45:41.069Z,23.58
2018-07-16T07:46:41.095Z,23.73
2018-07-16T07:47:41.162Z,23.85
2018-07-16T07:48:41.123Z,24.15
2018-07-16T07:49:41.149Z,24.09
2018-07-16T07:50:41.160Z,24.18
2018-07-16T07:51:41.181Z,24.05
2018-07-16T07:52:41.200Z,23.84
2018-07-16T07:53:41.220Z,24.02
2018-07-16T07:54:41.463Z,24.27
2018-07-16T07:55:41.341Z,24.06
2018-07-16T07:56:41.275Z,23.69
2018-07-16T07:57:41.293Z,23.19
2018-07-16T07:58:41.318Z,22.88
2018-07-16T07:59:41.336Z,22.73
2018-07-16T08:00:41.352Z,22.79
2018-07-16T08:01:41.374Z,22.85
2018-07-16T08:02:41.392Z,22.65
2018-07-16T08:03:41.419Z,22.85
2018-07-16T08:04:41.428Z,22.76
2018-07-16T08:05:41.450Z,22.49
2018-07-16T08:06:41.464Z,22.57
2018-07-16T08:07:41.486Z,22.67
2018-07-16T08:08:41.503Z,22.57
2018-07-16T08:09:41.526Z,22.43
2018-07-16T08:10:41.544Z,22.37
2018-07-16T08:11:41.562Z,22.57
2018-07-16T08:12:41.578Z,22.62
2018-07-16T08:13:41.626Z,22.47
2018-07-16T08:14:41.617Z,22.17
2018-07-16T08:15:41.637Z,22.03
2018-07-16T08:16:41.657Z,21.86
2018-07-16T08:17:41.671Z,21.96
2018-07-16T08:18:41.689Z,22.10
2018-07-16T08:19:41.713Z,22.54
2018-07-16T08:20:41.731Z,22.47
2018-07-16T08:21:41.745Z,22.86
2018-07-16T08:22:41.968Z,23.23
2018-07-16T08:23:41.784Z,23.46
2018-07-16T08:24:41.800Z,23.50
2018-07-16T08:25:41.827Z,23.50
2018-07-16T08:26:41.842Z,24.10
2018-07-16T08:27:41.856Z,24.18
2018-07-16T08:28:41.875Z,24.52
2018-07-16T08:29:41.894Z,24.73
2018-07-16T08:30:41.912Z,24.83
2018-07-16T08:31:41.940Z,25.08
2018-07-16T08:32:41.956Z,24.95
2018-07-16T08:33:42.047Z,25.65
2018-07-16T08:34:41.994Z,25.98
2018-07-16T08:35:42.017Z,25.82
2018-07-16T08:36:42.033Z,25.52
2018-07-16T08:37:42.049Z,25.47
2018-07-16T08:38:42.067Z,25.85
2018-07-16T08:39:42.092Z,25.80
2018-07-16T08:40:42.111Z,25.52
2018-07-16T08:41:42.129Z,25.15
2018-07-16T08:42:42.144Z,25.02
2018-07-16T08:43:42.165Z,24.81
2018-07-16T08:44:42.186Z,24.88
2018-07-16T08:45:42.209Z,24.61
2018-07-16T08:46:42.225Z,24.34
2018-07-16T08:47:42.247Z,24.15
2018-07-16T08:48:42.262Z,24.08
2018-07-16T08:49:42.288Z,24.10
2018-07-16T08:50:42.302Z,23.93
2018-07-16T08:51:42.329Z,23.75
2018-07-16T08:52:42.402Z,23.85
2018-07-16T08:53:42.362Z,23.94
2018-07-16T08:54:42.434Z,24.09
2018-07-16T08:55:42.402Z,24.15
2018-07-16T08:56:42.424Z,24.18
2018-07-16T08:57:42.445Z,24.50
2018-07-16T08:58:42.459Z,24.42
2018-07-16T08:59:42.484Z,24.47
2018-07-16T09:00:42.503Z,24.37
2018-07-16T09:01:42.518Z,23.69
2018-07-16T09:02:42.547Z,23.60
2018-07-16T09:03:42.611Z,23.42
2018-07-16T09:04:42.581Z,23.48
2018-07-16T09:05:42.598Z,23.66
2018-07-16T09:06:42.620Z,23.76
2018-07-16T09:07:42.649Z,23.78
2018-07-16T09:08:42.669Z,23.83
2018-07-16T09:09:42.737Z,23.42
2018-07-16T09:10:42.700Z,23.54
2018-07-16T09:11:42.716Z,23.60
2018-07-16T09:12:42.731Z,23.68
2018-07-16T09:13:42.763Z,23.70
2018-07-16T09:14:42.771Z,23.87
2018-07-16T09:15:42.787Z,24.00
2018-07-16T09:16:42.827Z,24.02
2018-07-16T09:17:42.832Z,24.09
2018-07-16T09:18:42.846Z,24.22
2018-07-16T09:19:42.895Z,24.35
2018-07-16T09:20:42.889Z,24.84
2018-07-16T09:21:42.903Z,25.39
2018-07-16T09:22:42.926Z,25.73
2018-07-16T09:23:42.941Z,25.87
2018-07-16T09:24:42.968Z,26.18
2018-07-16T09:25:42.981Z,26.37
2018-07-16T09:26:43.005Z,26.65
2018-07-16T09:27:43.079Z,26.33
2018-07-16T09:28:43.044Z,26.43
2018-07-16T09:29:43.065Z,26.44
2018-07-16T09:30:43.082Z,26.80
2018-07-16T09:31:43.105Z,27.12
2018-07-16T09:32:43.158Z,27.18
2018-07-16T09:33:43.146Z,27.04
2018-07-16T09:34:43.160Z,26.26
2018-07-16T09:35:43.190Z,26.28
2018-07-16T09:36:43.208Z,26.51
2018-07-16T09:37:43.222Z,26.45
2018-07-16T09:38:43.241Z,26.09
2018-07-16T09:39:43.268Z,26.02
2018-07-16T09:40:43.288Z,26.36
2018-07-16T09:41:43.320Z,26.76
2018-07-16T09:42:43.326Z,27.24
2018-07-16T09:43:43.346Z,27.09
2018-07-16T09:44:43.418Z,26.48
2018-07-16T09:45:43.386Z,26.77
2018-07-16T09:46:43.415Z,26.88
2018-07-16T09:47:43.437Z,26.63
2018-07-16T09:48:43.447Z,26.37
2018-07-16T09:49:43.468Z,26.45
2018-07-16T09:50:43.541Z,26.13
2018-07-16T09:51:43.514Z,26.35
2018-07-16T09:52:43.530Z,26.51
2018-07-16T09:53:43.552Z,26.89
2018-07-16T09:54:43.572Z,26.77
2018-07-16T09:55:43.595Z,26.81
2018-07-16T09:56:43.658Z,27.06
2018-07-16T09:57:43.639Z,27.14
2018-07-16T09:58:43.655Z,26.67
2018-07-16T09:59:43.677Z,26.45
2018-07-16T10:00:43.698Z,26.37
2018-07-16T10:01:43.725Z,26.40
2018-07-16T10:02:43.858Z,26.47
2018-07-16T10:03:43.758Z,26.73
2018-07-16T10:04:43.780Z,26.66
2018-07-16T10:05:43.801Z,26.65
2018-07-16T10:06:43.825Z,26.62
2018-07-16T10:07:43.846Z,26.89
2018-07-16T10:08:43.952Z,27.36
2018-07-16T10:09:43.884Z,27.96
2018-07-16T10:10:43.910Z,28.12
2018-07-16T10:11:43.932Z,28.39
2018-07-16T10:12:43.952Z,28.89
2018-07-16T10:13:43.978Z,28.64
2018-07-16T10:14:44.056Z,29.15
2018-07-16T10:15:44.017Z,29.21
2018-07-16T10:16:44.034Z,29.15
2018-07-16T10:17:44.060Z,29.00
2018-07-16T10:18:44.075Z,28.71
2018-07-16T10:19:44.098Z,28.83
2018-07-16T10:20:44.159Z,29.15
2018-07-16T10:21:44.148Z,28.92
2018-07-16T10:22:44.168Z,28.56
2018-07-16T10:23:44.186Z,28.03
2018-07-16T10:24:44.215Z,27.81
2018-07-16T10:25:44.275Z,27.60
2018-07-16T10:26:44.252Z,27.37
2018-07-16T10:27:44.277Z,27.13
2018-07-16T10:28:44.302Z,27.25
2018-07-16T10:29:44.317Z,27.87
2018-07-16T10:30:44.341Z,27.87
2018-07-16T10:31:44.362Z,28.55
2018-07-16T10:32:44.383Z,28.76
2018-07-16T10:33:44.455Z,28.78
2018-07-16T10:34:44.427Z,28.49
2018-07-16T10:35:44.452Z,28.92
2018-07-16T10:36:44.476Z,29.49
2018-07-16T10:37:44.496Z,29.71
2018-07-16T10:38:44.514Z,29.12
2018-07-16T10:39:44.552Z,29.02
2018-07-16T10:40:44.564Z,28.03
2018-07-16T10:41:44.585Z,28.17
2018-07-16T10:42:44.606Z,28.00
2018-07-16T10:43:44.623Z,27.93
2018-07-16T10:44:44.701Z,27.77
2018-07-16T10:45:44.704Z,27.46
2018-07-16T10:46:44.699Z,27.40
2018-07-16T10:47:44.719Z,27.14
2018-07-16T10:48:44.736Z,27.43
2018-07-16T10:49:44.808Z,27.21
2018-07-16T10:50:44.847Z,27.41
2018-07-16T10:51:44.870Z,27.29
2018-07-16T10:52:45.026Z,27.12
2018-07-16T10:53:44.848Z,27.22
2018-07-16T10:55:44.890Z,27.65
2018-07-16T10:56:44.916Z,28.11
2018-07-16T10:57:44.934Z,27.62
2018-07-16T10:58:44.953Z,27.69
2018-07-16T10:59:44.975Z,27.62
2018-07-16T11:00:44.997Z,27.82
2018-07-16T11:01:45.017Z,28.30
2018-07-16T11:02:45.042Z,28.46
2018-07-16T11:03:45.077Z,28.22
2018-07-16T11:04:45.090Z,28.15
2018-07-16T11:05:45.101Z,27.54
2018-07-16T11:06:45.124Z,27.18
2018-07-16T11:07:45.144Z,27.18
2018-07-16T11:08:45.167Z,27.28
2018-07-16T11:09:45.218Z,27.43
2018-07-16T11:10:45.213Z,27.84
2018-07-16T11:11:45.235Z,27.59
2018-07-16T11:12:45.255Z,27.85
2018-07-16T11:13:45.275Z,28.17
2018-07-16T11:14:45.294Z,27.90
2018-07-16T11:15:45.333Z,28.11
2018-07-16T11:16:45.342Z,28.12
2018-07-16T11:17:45.364Z,28.22
2018-07-16T11:18:45.382Z,28.19
2018-07-16T11:19:45.410Z,27.92
2018-07-16T11:20:45.503Z,28.02
2018-07-16T11:21:45.454Z,27.81
2018-07-16T11:22:45.471Z,27.97
2018-07-16T11:23:45.493Z,27.46
2018-07-16T11:24:45.510Z,27.79
2018-07-16T11:25:45.531Z,27.37
2018-07-16T11:26:45.558Z,27.59
2018-07-16T11:27:45.575Z,28.44
2018-07-16T11:28:45.602Z,28.67
2018-07-16T11:29:45.626Z,28.52
2018-07-16T11:30:45.645Z,28.39
2018-07-16T11:31:45.666Z,28.59
2018-07-16T11:32:45.685Z,28.14
2018-07-16T11:33:45.708Z,28.29
2018-07-16T11:34:45.730Z,28.24
2018-07-16T11:35:45.824Z,27.59
2018-07-16T11:36:45.771Z,28.03
2018-07-16T11:37:45.797Z,28.22
2018-07-16T11:38:45.870Z,27.66
2018-07-16T11:39:45.838Z,27.60
2018-07-16T11:40:45.860Z,27.21
2018-07-16T11:41:45.882Z,27.92
2018-07-16T11:42:45.898Z,28.41
2018-07-16T11:43:45.930Z,27.79
2018-07-16T11:44:46.000Z,28.40
2018-07-16T11:45:45.970Z,28.56
2018-07-16T11:46:45.990Z,29.27
2018-07-16T11:47:46.012Z,29.53
2018-07-16T11:48:46.031Z,29.70
2018-07-16T11:49:46.057Z,30.08
2018-07-16T11:50:46.073Z,30.45
2018-07-16T11:51:46.185Z,30.60
2018-07-16T11:52:46.120Z,31.13
2018-07-16T11:53:46.197Z,30.15
2018-07-16T11:54:46.165Z,30.53
2018-07-16T11:55:46.187Z,30.61
2018-07-16T11:56:46.213Z,30.16
2018-07-16T11:57:46.254Z,30.32
2018-07-16T11:58:46.257Z,30.23
2018-07-16T11:59:46.275Z,30.24
2018-07-16T12:00:46.297Z,30.43
2018-07-16T12:01:46.387Z,30.29
2018-07-16T12:02:46.347Z,30.32
2018-07-16T12:03:46.411Z,29.92
2018-07-16T12:04:46.394Z,29.65
2018-07-16T12:05:46.412Z,30.27
2018-07-16T12:06:46.435Z,30.67
2018-07-16T12:07:46.463Z,30.79
2018-07-16T12:08:46.484Z,29.61
2018-07-16T12:09:46.574Z,30.19
2018-07-16T12:10:46.527Z,30.32
2018-07-16T12:11:46.552Z,30.29
2018-07-16T12:12:46.683Z,30.47
2018-07-16T12:13:46.599Z,30.34
2018-07-16T12:14:46.627Z,30.47
2018-07-16T12:15:46.658Z,30.51
2018-07-16T12:16:46.667Z,29.90
2018-07-16T12:17:46.697Z,29.39
2018-07-16T12:18:46.713Z,29.51
2018-07-16T12:19:46.738Z,29.83
2018-07-16T12:20:46.766Z,30.20
2018-07-16T12:21:46.838Z,30.51
2018-07-16T12:22:46.808Z,30.76
2018-07-16T12:23:46.835Z,30.72
2018-07-16T12:24:46.859Z,30.77
2018-07-16T12:25:46.949Z,30.45
2018-07-16T12:26:46.906Z,30.70
2018-07-16T12:27:46.994Z,30.88
2018-07-16T12:28:46.956Z,30.34
2018-07-16T12:29:46.976Z,30.73
2018-07-16T12:30:46.998Z,30.98
2018-07-16T12:31:47.070Z,31.51
2018-07-16T12:32:47.095Z,30.94
2018-07-16T12:33:47.114Z,30.73
2018-07-16T12:34:47.093Z,30.34
2018-07-16T12:35:47.122Z,30.47
2018-07-16T12:36:47.143Z,30.92
2018-07-16T12:37:47.212Z,30.98
2018-07-16T12:38:47.190Z,31.01
2018-07-16T12:39:47.256Z,31.12
2018-07-16T12:40:47.236Z,31.14
2018-07-16T12:41:47.265Z,31.38
2018-07-16T12:42:47.279Z,31.51
2018-07-16T12:43:47.304Z,31.78
2018-07-16T12:44:47.328Z,31.69
2018-07-16T12:45:47.357Z,31.58
2018-07-16T12:46:47.440Z,31.34
2018-07-16T12:47:47.405Z,31.14
2018-07-16T12:48:47.428Z,30.39
2018-07-16T12:49:47.453Z,30.53
2018-07-16T12:50:47.469Z,30.76
2018-07-16T12:51:47.499Z,31.09
2018-07-16T12:52:47.615Z,31.31
2018-07-16T12:53:47.549Z,31.17
2018-07-16T12:54:47.639Z,31.17